createdAt,value
2018-12-08T00:08:56.275Z,93569.77
2018-12-08T00:23:59.087Z,93553.83
2018-12-08T00:39:01.671Z,93536.25
2018-12-08T00:54:07.417Z,93536.89
2018-12-08T01:09:10.186Z,93530.73
2018-12-08T01:24:12.868Z,93502.16
2018-12-08T01:39:15.443Z,93501.61
2018-12-08T01:54:18.049Z,93472.13
2018-12-08T02:09:21.322Z,93450.78
2018-12-08T02:24:23.879Z,93447.39
2018-12-08T02:39:27.497Z,93441.05
2018-12-08T02:54:30.361Z,93426.70
2018-12-08T03:09:33.602Z,93414.78
2018-12-08T03:24:36.537Z,93428.48
2018-12-08T03:39:39.137Z,93429.23
2018-12-08T03:54:41.773Z,93411.91
2018-12-08T04:09:44.569Z,93415.60
2018-12-08T04:24:47.366Z,93397.41
2018-12-08T04:39:52.482Z,93403.33
2018-12-08T04:54:56.079Z,93402.06
2018-12-08T05:09:58.939Z,93409.76
2018-12-08T05:25:02.683Z,93416.25
2018-12-08T05:40:06.510Z,93416.25
2018-12-08T05:55:09.072Z,93404.77
2018-12-08T06:10:11.638Z,93413.55
2018-12-08T06:25:17.883Z,93415.77
2018-12-08T06:40:20.443Z,93414.34
2018-12-08T06:55:23.569Z,93427.45
2018-12-08T07:10:27.091Z,93416.23
2018-12-08T07:25:30.975Z,93377.17
2018-12-08T07:40:34.493Z,93362.59
2018-12-08T07:55:37.209Z,93379.64
2018-12-08T08:10:40.906Z,93377.55
2018-12-08T08:25:43.781Z,93386.42
2018-12-08T08:40:46.394Z,93362.80
2018-12-08T08:55:49.806Z,93385.79
2018-12-08T09:10:52.443Z,93366.88
2018-12-08T09:25:55.029Z,93338.51
2018-12-08T09:40:57.852Z,93329.02
2018-12-08T09:56:00.441Z,93321.98
2018-12-08T10:11:03.236Z,93301.11
2018-12-08T10:26:06.106Z,93279.09
2018-12-08T10:41:10.412Z,93260.39
2018-12-08T10:56:13.259Z,93234.39
2018-12-08T11:11:16.888Z,93225.02
2018-12-08T11:26:19.549Z,93196.64
2018-12-08T11:41:22.214Z,93174.77
2018-12-08T11:56:26.295Z,93175.34
2018-12-08T12:11:29.990Z,93185.52
2018-12-08T12:26:32.635Z,93190.65
2018-12-08T12:41:35.886Z,93165.63
2018-12-08T12:56:39.369Z,93157.78
2018-12-08T13:11:44.089Z,93160.05
2018-12-08T13:26:47.013Z,93147.11
2018-12-08T13:41:49.609Z,93140.36
2018-12-08T13:56:52.178Z,93168.48
2018-12-08T14:11:54.747Z,93170.10
2018-12-08T14:27:01.938Z,93199.45
2018-12-08T14:42:04.517Z,93197.75
2018-12-08T14:57:07.391Z,93166.86
2018-12-08T15:12:11.732Z,93186.89
2018-12-08T15:27:44.964Z,93182.45
2018-12-08T15:43:18.220Z,93199.63
2018-12-08T15:58:51.630Z,93181.00
2018-12-08T16:14:24.885Z,93168.66
2018-12-08T16:29:57.985Z,93171.38
2018-12-08T16:45:30.937Z,93183.61
2018-12-08T17:01:03.921Z,93173.47
2018-12-08T17:16:37.093Z,93165.64
2018-12-08T17:32:10.169Z,93173.51
2018-12-08T17:47:43.463Z,93193.34
2018-12-08T18:03:16.415Z,93185.75
2018-12-08T18:18:49.715Z,93169.34
2018-12-08T18:34:23.596Z,93165.63
2018-12-08T18:49:57.103Z,93169.63
2018-12-08T19:05:30.687Z,93169.02
2018-12-08T19:21:03.668Z,93178.41
2018-12-08T19:36:37.287Z,93171.24
2018-12-08T19:52:10.408Z,93186.27
2018-12-08T20:07:43.476Z,93183.16
2018-12-08T20:23:17.062Z,93183.69
2018-12-08T20:38:49.980Z,93169.16
2018-12-08T20:54:23.533Z,93161.69
2018-12-08T21:09:56.692Z,93156.40
2018-12-08T21:25:29.794Z,93149.16
2018-12-08T21:41:03.476Z,93167.47
2018-12-08T21:56:36.650Z,93150.27
2018-12-08T22:12:09.610Z,93157.75
2018-12-08T22:27:42.599Z,93168.06
2018-12-08T22:43:16.114Z,93154.09
2018-12-08T22:58:49.200Z,93135.20
2018-12-08T23:14:22.475Z,93126.50
2018-12-08T23:29:55.807Z,93124.75
2018-12-08T23:45:29.176Z,93148.93
